sensor_id;sensor_type;location;lat;lon;timestamp;P1;durP1;ratioP1;P2;durP2;ratioP2
43756;SDS011;73222;41.866;12.462;2024-02-14T00:00:09;7.32;;;3.88;;
43756;SDS011;73222;41.866;12.462;2024-02-14T00:02:38;5.40;;;3.72;;
43756;SDS011;73222;41.866;12.462;2024-02-14T00:05:05;5.95;;;3.38;;
43756;SDS011;73222;41.866;12.462;2024-02-14T00:07:30;5.57;;;3.25;;
43756;SDS011;73222;41.866;12.462;2024-02-14T00:09:56;6.47;;;3.47;;
43756;SDS011;73222;41.866;12.462;2024-02-14T00:12:21;4.82;;;3.42;;
43756;SDS011;73222;41.866;12.462;2024-02-14T00:14:49;5.70;;;3.35;;
43756;SDS011;73222;41.866;12.462;2024-02-14T00:17:16;6.57;;;3.90;;
43756;SDS011;73222;41.866;12.462;2024-02-14T00:19:41;4.20;;;3.38;;
43756;SDS011;73222;41.866;12.462;2024-02-14T00:22:06;4.97;;;3.55;;
43756;SDS011;73222;41.866;12.462;2024-02-14T00:24:32;5.60;;;3.80;;
43756;SDS011;73222;41.866;12.462;2024-02-14T00:26:58;6.55;;;3.60;;
43756;SDS011;73222;41.866;12.462;2024-02-14T00:29:25;7.60;;;3.97;;
43756;SDS011;73222;41.866;12.462;2024-02-14T00:31:51;5.18;;;3.30;;
43756;SDS011;73222;41.866;12.462;2024-02-14T00:34:16;5.63;;;3.47;;
43756;SDS011;73222;41.866;12.462;2024-02-14T00:36:41;5.32;;;3.65;;
43756;SDS011;73222;41.866;12.462;2024-02-14T00:39:07;5.15;;;3.33;;
43756;SDS011;73222;41.866;12.462;2024-02-14T00:41:34;6.57;;;3.72;;
43756;SDS011;73222;41.866;12.462;2024-02-14T00:44:03;5.03;;;3.28;;
43756;SDS011;73222;41.866;12.462;2024-02-14T00:46:29;6.82;;;3.17;;
43756;SDS011;73222;41.866;12.462;2024-02-14T00:48:54;6.25;;;3.53;;
43756;SDS011;73222;41.866;12.462;2024-02-14T00:51:21;4.82;;;3.33;;
43756;SDS011;73222;41.866;12.462;2024-02-14T00:53:46;5.38;;;3.40;;
43756;SDS011;73222;41.866;12.462;2024-02-14T00:56:12;4.97;;;3.33;;
43756;SDS011;73222;41.866;12.462;2024-02-14T00:58:37;7.18;;;3.35;;
43756;SDS011;73222;41.866;12.462;2024-02-14T01:01:02;5.18;;;3.47;;
43756;SDS011;73222;41.866;12.462;2024-02-14T01:03:28;7.75;;;3.90;;
43756;SDS011;73222;41.866;12.462;2024-02-14T01:05:53;4.63;;;3.25;;
43756;SDS011;73222;41.866;12.462;2024-02-14T01:08:19;5.75;;;3.50;;
43756;SDS011;73222;41.866;12.462;2024-02-14T01:10:45;5.38;;;3.45;;
43756;SDS011;73222;41.866;12.462;2024-02-14T01:13:11;6.82;;;3.55;;
43756;SDS011;73222;41.866;12.462;2024-02-14T01:15:37;5.38;;;3.58;;
43756;SDS011;73222;41.866;12.462;2024-02-14T01:18:02;6.00;;;2.95;;
43756;SDS011;73222;41.866;12.462;2024-02-14T01:20:28;5.45;;;3.25;;
43756;SDS011;73222;41.866;12.462;2024-02-14T01:22:54;5.57;;;3.38;;
43756;SDS011;73222;41.866;12.462;2024-02-14T01:25:19;5.72;;;3.30;;
43756;SDS011;73222;41.866;12.462;2024-02-14T01:27:45;4.72;;;2.78;;
43756;SDS011;73222;41.866;12.462;2024-02-14T01:30:10;3.92;;;2.67;;
43756;SDS011;73222;41.866;12.462;2024-02-14T01:32:37;4.53;;;2.60;;
43756;SDS011;73222;41.866;12.462;2024-02-14T01:35:02;6.20;;;2.90;;
43756;SDS011;73222;41.866;12.462;2024-02-14T01:37:28;8.63;;;3.10;;
43756;SDS011;73222;41.866;12.462;2024-02-14T01:39:54;6.18;;;2.95;;
43756;SDS011;73222;41.866;12.462;2024-02-14T01:42:20;4.78;;;2.92;;
43756;SDS011;73222;41.866;12.462;2024-02-14T01:44:45;6.05;;;2.70;;
43756;SDS011;73222;41.866;12.462;2024-02-14T01:47:10;4.55;;;2.78;;
43756;SDS011;73222;41.866;12.462;2024-02-14T01:49:37;4.95;;;2.55;;
43756;SDS011;73222;41.866;12.462;2024-02-14T01:52:03;4.07;;;2.60;;
43756;SDS011;73222;41.866;12.462;2024-02-14T01:54:30;6.70;;;3.30;;
43756;SDS011;73222;41.866;12.462;2024-02-14T01:56:56;4.20;;;2.85;;
43756;SDS011;73222;41.866;12.462;2024-02-14T01:59:24;4.07;;;3.15;;
43756;SDS011;73222;41.866;12.462;2024-02-14T02:01:49;4.50;;;2.80;;
43756;SDS011;73222;41.866;12.462;2024-02-14T02:04:17;3.88;;;2.53;;
43756;SDS011;73222;41.866;12.462;2024-02-14T02:06:43;6.93;;;2.88;;
43756;SDS011;73222;41.866;12.462;2024-02-14T02:09:09;5.47;;;3.15;;
43756;SDS011;73222;41.866;12.462;2024-02-14T02:11:50;4.40;;;2.67;;
43756;SDS011;73222;41.866;12.462;2024-02-14T02:14:18;4.95;;;2.72;;
43756;SDS011;73222;41.866;12.462;2024-02-14T02:16:44;7.20;;;3.30;;
43756;SDS011;73222;41.866;12.462;2024-02-14T02:19:11;5.65;;;3.00;;
43756;SDS011;73222;41.866;12.462;2024-02-14T02:21:36;6.15;;;3.35;;
43756;SDS011;73222;41.866;12.462;2024-02-14T02:24:03;4.97;;;3.08;;
43756;SDS011;73222;41.866;12.462;2024-02-14T02:26:29;4.40;;;2.80;;
43756;SDS011;73222;41.866;12.462;2024-02-14T02:28:54;4.43;;;2.85;;
43756;SDS011;73222;41.866;12.462;2024-02-14T02:31:20;5.45;;;2.92;;
43756;SDS011;73222;41.866;12.462;2024-02-14T02:33:45;4.93;;;2.97;;
43756;SDS011;73222;41.866;12.462;2024-02-14T02:36:12;5.78;;;3.60;;
43756;SDS011;73222;41.866;12.462;2024-02-14T02:38:37;4.07;;;2.63;;
43756;SDS011;73222;41.866;12.462;2024-02-14T02:41:03;5.47;;;2.92;;
43756;SDS011;73222;41.866;12.462;2024-02-14T02:43:31;6.28;;;3.33;;
43756;SDS011;73222;41.866;12.462;2024-02-14T02:45:58;7.38;;;3.45;;
43756;SDS011;73222;41.866;12.462;2024-02-14T02:48:24;6.60;;;3.15;;
43756;SDS011;73222;41.866;12.462;2024-02-14T02:50:49;4.43;;;3.13;;
43756;SDS011;73222;41.866;12.462;2024-02-14T02:53:15;5.68;;;3.55;;
43756;SDS011;73222;41.866;12.462;2024-02-14T02:55:41;6.25;;;3.65;;
43756;SDS011;73222;41.866;12.462;2024-02-14T02:58:07;5.20;;;3.55;;
43756;SDS011;73222;41.866;12.462;2024-02-14T03:00:33;6.60;;;3.10;;
43756;SDS011;73222;41.866;12.462;2024-02-14T03:02:58;6.57;;;3.28;;
43756;SDS011;73222;41.866;12.462;2024-02-14T03:05:24;5.32;;;2.72;;
43756;SDS011;73222;41.866;12.462;2024-02-14T03:07:50;5.85;;;3.10;;
43756;SDS011;73222;41.866;12.462;2024-02-14T03:10:17;4.40;;;3.08;;
43756;SDS011;73222;41.866;12.462;2024-02-14T03:12:49;6.10;;;3.42;;
43756;SDS011;73222;41.866;12.462;2024-02-14T03:15:15;5.57;;;3.10;;
43756;SDS011;73222;41.866;12.462;2024-02-14T03:17:41;4.40;;;2.90;;
43756;SDS011;73222;41.866;12.462;2024-02-14T03:20:07;4.60;;;3.00;;
43756;SDS011;73222;41.866;12.462;2024-02-14T03:22:38;4.47;;;3.00;;
43756;SDS011;73222;41.866;12.462;2024-02-14T03:25:08;4.28;;;3.00;;
43756;SDS011;73222;41.866;12.462;2024-02-14T03:27:34;6.35;;;3.33;;
43756;SDS011;73222;41.866;12.462;2024-02-14T03:29:59;4.88;;;3.38;;
43756;SDS011;73222;41.866;12.462;2024-02-14T03:32:28;4.70;;;3.33;;
43756;SDS011;73222;41.866;12.462;2024-02-14T03:34:53;4.85;;;3.30;;
43756;SDS011;73222;41.866;12.462;2024-02-14T03:37:19;7.43;;;3.70;;
43756;SDS011;73222;41.866;12.462;2024-02-14T03:39:44;6.88;;;3.35;;
43756;SDS011;73222;41.866;12.462;2024-02-14T03:42:10;5.07;;;3.28;;
43756;SDS011;73222;41.866;12.462;2024-02-14T03:44:37;4.70;;;3.33;;
43756;SDS011;73222;41.866;12.462;2024-02-14T03:47:03;5.72;;;3.38;;
43756;SDS011;73222;41.866;12.462;2024-02-14T03:49:29;6.50;;;3.25;;
43756;SDS011;73222;41.866;12.462;2024-02-14T03:51:56;5.43;;;3.10;;
43756;SDS011;73222;41.866;12.462;2024-02-14T03:54:21;4.93;;;3.40;;
43756;SDS011;73222;41.866;12.462;2024-02-14T03:56:47;6.70;;;3.22;;
43756;SDS011;73222;41.866;12.462;2024-02-14T03:59:12;5.03;;;3.42;;
43756;SDS011;73222;41.866;12.462;2024-02-14T04:01:43;5.10;;;3.72;;
43756;SDS011;73222;41.866;12.462;2024-02-14T04:04:10;5.90;;;3.70;;
43756;SDS011;73222;41.866;12.462;2024-02-14T04:06:35;6.65;;;4.00;;
43756;SDS011;73222;41.866;12.462;2024-02-14T04:09:00;4.68;;;3.22;;
43756;SDS011;73222;41.866;12.462;2024-02-14T04:11:26;8.13;;;3.58;;
43756;SDS011;73222;41.866;12.462;2024-02-14T04:13:51;6.25;;;4.10;;
43756;SDS011;73222;41.866;12.462;2024-02-14T04:16:20;6.45;;;3.45;;
43756;SDS011;73222;41.866;12.462;2024-02-14T04:18:46;5.75;;;3.70;;
43756;SDS011;73222;41.866;12.462;2024-02-14T04:21:11;7.43;;;3.88;;
43756;SDS011;73222;41.866;12.462;2024-02-14T04:23:37;5.43;;;3.80;;
43756;SDS011;73222;41.866;12.462;2024-02-14T04:26:02;5.07;;;3.47;;
43756;SDS011;73222;41.866;12.462;2024-02-14T04:28:28;6.55;;;3.63;;
43756;SDS011;73222;41.866;12.462;2024-02-14T04:30:53;4.60;;;3.38;;
43756;SDS011;73222;41.866;12.462;2024-02-14T04:33:20;7.00;;;3.88;;
43756;SDS011;73222;41.866;12.462;2024-02-14T04:35:46;5.03;;;3.70;;
43756;SDS011;73222;41.866;12.462;2024-02-14T04:38:12;7.72;;;3.70;;
43756;SDS011;73222;41.866;12.462;2024-02-14T04:40:37;6.30;;;4.20;;
43756;SDS011;73222;41.866;12.462;2024-02-14T04:43:03;6.07;;;3.65;;
43756;SDS011;73222;41.866;12.462;2024-02-14T04:45:29;5.50;;;3.88;;
43756;SDS011;73222;41.866;12.462;2024-02-14T04:47:55;6.22;;;3.80;;
43756;SDS011;73222;41.866;12.462;2024-02-14T04:50:20;5.68;;;3.50;;
43756;SDS011;73222;41.866;12.462;2024-02-14T04:52:46;6.30;;;3.55;;
43756;SDS011;73222;41.866;12.462;2024-02-14T04:55:11;6.65;;;3.90;;
43756;SDS011;73222;41.866;12.462;2024-02-14T04:57:36;6.32;;;3.92;;
43756;SDS011;73222;41.866;12.462;2024-02-14T05:00:03;6.65;;;4.07;;
43756;SDS011;73222;41.866;12.462;2024-02-14T05:02:30;7.80;;;4.50;;
43756;SDS011;73222;41.866;12.462;2024-02-14T05:04:56;5.80;;;3.97;;
43756;SDS011;73222;41.866;12.462;2024-02-14T05:07:21;8.52;;;4.40;;
43756;SDS011;73222;41.866;12.462;2024-02-14T05:09:47;9.45;;;3.75;;
43756;SDS011;73222;41.866;12.462;2024-02-14T05:12:15;6.03;;;4.32;;
43756;SDS011;73222;41.866;12.462;2024-02-14T05:14:40;8.43;;;3.90;;
43756;SDS011;73222;41.866;12.462;2024-02-14T05:17:07;8.07;;;4.13;;
43756;SDS011;73222;41.866;12.462;2024-02-14T05:19:32;5.35;;;3.75;;
43756;SDS011;73222;41.866;12.462;2024-02-14T05:21:58;6.10;;;4.07;;
43756;SDS011;73222;41.866;12.462;2024-02-14T05:24:23;6.45;;;4.10;;
43756;SDS011;73222;41.866;12.462;2024-02-14T05:26:52;7.88;;;4.28;;
43756;SDS011;73222;41.866;12.462;2024-02-14T05:29:17;7.10;;;4.03;;
43756;SDS011;73222;41.866;12.462;2024-02-14T05:31:46;8.27;;;4.15;;
43756;SDS011;73222;41.866;12.462;2024-02-14T05:34:13;6.68;;;4.10;;
43756;SDS011;73222;41.866;12.462;2024-02-14T05:36:39;6.97;;;4.35;;
43756;SDS011;73222;41.866;12.462;2024-02-14T05:39:05;8.23;;;5.05;;
43756;SDS011;73222;41.866;12.462;2024-02-14T05:41:33;8.20;;;4.80;;
43756;SDS011;73222;41.866;12.462;2024-02-14T05:43:59;7.57;;;4.57;;
43756;SDS011;73222;41.866;12.462;2024-02-14T05:46:25;7.57;;;4.95;;
43756;SDS011;73222;41.866;12.462;2024-02-14T05:48:50;9.48;;;4.88;;
43756;SDS011;73222;41.866;12.462;2024-02-14T05:51:18;8.70;;;4.30;;
43756;SDS011;73222;41.866;12.462;2024-02-14T05:53:43;6.18;;;4.00;;
43756;SDS011;73222;41.866;12.462;2024-02-14T05:56:09;7.75;;;5.05;;
43756;SDS011;73222;41.866;12.462;2024-02-14T05:58:34;9.52;;;4.63;;
43756;SDS011;73222;41.866;12.462;2024-02-14T06:01:00;6.70;;;4.03;;
43756;SDS011;73222;41.866;12.462;2024-02-14T06:03:26;7.15;;;4.40;;
43756;SDS011;73222;41.866;12.462;2024-02-14T06:05:51;8.15;;;4.72;;
43756;SDS011;73222;41.866;12.462;2024-02-14T06:08:16;9.65;;;4.38;;
43756;SDS011;73222;41.866;12.462;2024-02-14T06:10:42;8.73;;;4.47;;
43756;SDS011;73222;41.866;12.462;2024-02-14T06:13:07;12.63;;;4.72;;
43756;SDS011;73222;41.866;12.462;2024-02-14T06:15:33;10.40;;;5.03;;
43756;SDS011;73222;41.866;12.462;2024-02-14T06:17:58;7.18;;;4.95;;
43756;SDS011;73222;41.866;12.462;2024-02-14T06:20:24;7.00;;;4.53;;
43756;SDS011;73222;41.866;12.462;2024-02-14T06:22:50;8.88;;;4.80;;
43756;SDS011;73222;41.866;12.462;2024-02-14T06:25:16;11.15;;;5.40;;
43756;SDS011;73222;41.866;12.462;2024-02-14T06:27:41;11.18;;;5.10;;
43756;SDS011;73222;41.866;12.462;2024-02-14T06:30:07;10.52;;;5.32;;
43756;SDS011;73222;41.866;12.462;2024-02-14T06:32:33;9.73;;;5.20;;
43756;SDS011;73222;41.866;12.462;2024-02-14T06:34:58;9.02;;;5.45;;
43756;SDS011;73222;41.866;12.462;2024-02-14T06:37:24;7.38;;;5.03;;
43756;SDS011;73222;41.866;12.462;2024-02-14T06:39:49;9.02;;;4.78;;
43756;SDS011;73222;41.866;12.462;2024-02-14T06:42:15;8.68;;;5.40;;
43756;SDS011;73222;41.866;12.462;2024-02-14T06:44:41;8.98;;;4.88;;
43756;SDS011;73222;41.866;12.462;2024-02-14T06:47:07;11.05;;;4.82;;
43756;SDS011;73222;41.866;12.462;2024-02-14T06:49:32;9.20;;;5.35;;
43756;SDS011;73222;41.866;12.462;2024-02-14T06:51:57;8.70;;;4.82;;
43756;SDS011;73222;41.866;12.462;2024-02-14T06:54:23;6.82;;;4.85;;
43756;SDS011;73222;41.866;12.462;2024-02-14T06:56:48;7.85;;;4.70;;
43756;SDS011;73222;41.866;12.462;2024-02-14T06:59:13;7.53;;;5.28;;
43756;SDS011;73222;41.866;12.462;2024-02-14T07:01:39;9.85;;;5.32;;
43756;SDS011;73222;41.866;12.462;2024-02-14T07:04:04;10.90;;;5.40;;
43756;SDS011;73222;41.866;12.462;2024-02-14T07:06:30;9.00;;;5.35;;
43756;SDS011;73222;41.866;12.462;2024-02-14T07:08:56;8.73;;;5.40;;
43756;SDS011;73222;41.866;12.462;2024-02-14T07:11:21;9.25;;;5.07;;
43756;SDS011;73222;41.866;12.462;2024-02-14T07:13:46;10.43;;;5.60;;
43756;SDS011;73222;41.866;12.462;2024-02-14T07:16:12;9.95;;;5.05;;
43756;SDS011;73222;41.866;12.462;2024-02-14T07:18:37;11.52;;;6.28;;
43756;SDS011;73222;41.866;12.462;2024-02-14T07:21:03;7.43;;;5.30;;
43756;SDS011;73222;41.866;12.462;2024-02-14T07:23:29;9.07;;;5.43;;
43756;SDS011;73222;41.866;12.462;2024-02-14T07:25:54;9.40;;;4.90;;
43756;SDS011;73222;41.866;12.462;2024-02-14T07:28:22;8.13;;;4.88;;
43756;SDS011;73222;41.866;12.462;2024-02-14T07:30:47;7.32;;;4.82;;
43756;SDS011;73222;41.866;12.462;2024-02-14T07:33:12;6.85;;;4.65;;
43756;SDS011;73222;41.866;12.462;2024-02-14T07:35:39;7.03;;;4.38;;
43756;SDS011;73222;41.866;12.462;2024-02-14T07:38:04;6.57;;;4.80;;
43756;SDS011;73222;41.866;12.462;2024-02-14T07:40:31;6.57;;;4.65;;
43756;SDS011;73222;41.866;12.462;2024-02-14T07:42:57;6.10;;;4.82;;
43756;SDS011;73222;41.866;12.462;2024-02-14T07:45:22;7.88;;;4.57;;
43756;SDS011;73222;41.866;12.462;2024-02-14T07:47:51;9.40;;;4.82;;
43756;SDS011;73222;41.866;12.462;2024-02-14T07:50:17;6.90;;;5.32;;
43756;SDS011;73222;41.866;12.462;2024-02-14T07:52:42;9.13;;;5.35;;
43756;SDS011;73222;41.866;12.462;2024-02-14T07:55:11;6.68;;;4.75;;
43756;SDS011;73222;41.866;12.462;2024-02-14T07:57:37;8.90;;;5.40;;
43756;SDS011;73222;41.866;12.462;2024-02-14T08:00:04;7.22;;;5.35;;
43756;SDS011;73222;41.866;12.462;2024-02-14T08:02:30;8.52;;;4.20;;
43756;SDS011;73222;41.866;12.462;2024-02-14T08:04:56;7.88;;;4.75;;
43756;SDS011;73222;41.866;12.462;2024-02-14T08:07:21;12.52;;;4.78;;
43756;SDS011;73222;41.866;12.462;2024-02-14T08:09:46;8.38;;;5.13;;
43756;SDS011;73222;41.866;12.462;2024-02-14T08:12:12;5.95;;;4.40;;
43756;SDS011;73222;41.866;12.462;2024-02-14T08:14:37;7.95;;;4.95;;
43756;SDS011;73222;41.866;12.462;2024-02-14T08:17:03;6.47;;;4.97;;
43756;SDS011;73222;41.866;12.462;2024-02-14T08:19:29;10.15;;;4.68;;
43756;SDS011;73222;41.866;12.462;2024-02-14T08:21:54;6.95;;;5.00;;
43756;SDS011;73222;41.866;12.462;2024-02-14T08:24:24;8.73;;;4.80;;
43756;SDS011;73222;41.866;12.462;2024-02-14T08:26:53;9.68;;;4.38;;
43756;SDS011;73222;41.866;12.462;2024-02-14T08:29:19;6.30;;;4.82;;
43756;SDS011;73222;41.866;12.462;2024-02-14T08:31:44;7.22;;;4.13;;
43756;SDS011;73222;41.866;12.462;2024-02-14T08:34:09;7.90;;;5.05;;
43756;SDS011;73222;41.866;12.462;2024-02-14T08:36:35;5.65;;;4.22;;
43756;SDS011;73222;41.866;12.462;2024-02-14T08:39:08;7.70;;;4.88;;
43756;SDS011;73222;41.866;12.462;2024-02-14T08:41:35;7.90;;;4.80;;
43756;SDS011;73222;41.866;12.462;2024-02-14T08:44:04;8.50;;;5.30;;
43756;SDS011;73222;41.866;12.462;2024-02-14T08:46:31;9.88;;;4.38;;
43756;SDS011;73222;41.866;12.462;2024-02-14T08:48:56;5.32;;;3.85;;
43756;SDS011;73222;41.866;12.462;2024-02-14T08:51:22;6.85;;;4.28;;
43756;SDS011;73222;41.866;12.462;2024-02-14T08:53:48;5.85;;;4.00;;
43756;SDS011;73222;41.866;12.462;2024-02-14T08:56:14;7.45;;;4.47;;
43756;SDS011;73222;41.866;12.462;2024-02-14T08:58:39;7.28;;;4.50;;
43756;SDS011;73222;41.866;12.462;2024-02-14T09:01:05;9.00;;;5.05;;
43756;SDS011;73222;41.866;12.462;2024-02-14T09:03:33;8.57;;;4.68;;
43756;SDS011;73222;41.866;12.462;2024-02-14T09:05:58;6.93;;;4.80;;
43756;SDS011;73222;41.866;12.462;2024-02-14T09:08:24;7.15;;;4.55;;
43756;SDS011;73222;41.866;12.462;2024-02-14T09:10:49;6.55;;;4.47;;
43756;SDS011;73222;41.866;12.462;2024-02-14T09:13:15;8.02;;;4.55;;
43756;SDS011;73222;41.866;12.462;2024-02-14T09:15:41;6.88;;;4.60;;
43756;SDS011;73222;41.866;12.462;2024-02-14T09:18:07;6.50;;;4.40;;
43756;SDS011;73222;41.866;12.462;2024-02-14T09:20:32;6.10;;;4.35;;
43756;SDS011;73222;41.866;12.462;2024-02-14T09:22:58;9.45;;;4.22;;
43756;SDS011;73222;41.866;12.462;2024-02-14T09:25:23;11.30;;;5.13;;
43756;SDS011;73222;41.866;12.462;2024-02-14T09:27:50;5.55;;;4.32;;
43756;SDS011;73222;41.866;12.462;2024-02-14T09:30:16;6.60;;;4.22;;
43756;SDS011;73222;41.866;12.462;2024-02-14T09:32:43;5.57;;;3.83;;
43756;SDS011;73222;41.866;12.462;2024-02-14T09:35:09;7.15;;;3.70;;
43756;SDS011;73222;41.866;12.462;2024-02-14T09:37:35;6.28;;;3.72;;
43756;SDS011;73222;41.866;12.462;2024-02-14T09:40:03;6.95;;;3.97;;
43756;SDS011;73222;41.866;12.462;2024-02-14T09:42:41;6.07;;;3.92;;
43756;SDS011;73222;41.866;12.462;2024-02-14T09:45:09;4.60;;;3.38;;
43756;SDS011;73222;41.866;12.462;2024-02-14T09:47:35;4.65;;;3.28;;
43756;SDS011;73222;41.866;12.462;2024-02-14T09:50:04;3.85;;;3.10;;
43756;SDS011;73222;41.866;12.462;2024-02-14T09:52:32;5.47;;;3.08;;
43756;SDS011;73222;41.866;12.462;2024-02-14T09:54:58;5.22;;;2.88;;
43756;SDS011;73222;41.866;12.462;2024-02-14T09:57:24;4.95;;;2.80;;
43756;SDS011;73222;41.866;12.462;2024-02-14T09:59:51;4.68;;;2.85;;
43756;SDS011;73222;41.866;12.462;2024-02-14T10:02:18;3.53;;;2.65;;
43756;SDS011;73222;41.866;12.462;2024-02-14T10:04:44;4.60;;;2.70;;
43756;SDS011;73222;41.866;12.462;2024-02-14T10:07:09;5.75;;;2.42;;
43756;SDS011;73222;41.866;12.462;2024-02-14T10:09:41;5.40;;;2.55;;
43756;SDS011;73222;41.866;12.462;2024-02-14T10:12:08;4.93;;;2.63;;
43756;SDS011;73222;41.866;12.462;2024-02-14T10:14:36;2.83;;;2.30;;
43756;SDS011;73222;41.866;12.462;2024-02-14T10:17:05;3.38;;;2.50;;
43756;SDS011;73222;41.866;12.462;2024-02-14T10:19:32;6.72;;;2.55;;
43756;SDS011;73222;41.866;12.462;2024-02-14T10:21:58;4.45;;;2.80;;
43756;SDS011;73222;41.866;12.462;2024-02-14T10:24:28;3.72;;;2.22;;
43756;SDS011;73222;41.866;12.462;2024-02-14T10:26:56;3.30;;;2.40;;
43756;SDS011;73222;41.866;12.462;2024-02-14T10:29:22;3.33;;;1.88;;
43756;SDS011;73222;41.866;12.462;2024-02-14T10:31:49;3.47;;;2.22;;
43756;SDS011;73222;41.866;12.462;2024-02-14T10:34:15;3.50;;;2.20;;
43756;SDS011;73222;41.866;12.462;2024-02-14T10:36:42;3.10;;;1.67;;
43756;SDS011;73222;41.866;12.462;2024-02-14T10:39:09;3.55;;;2.20;;
43756;SDS011;73222;41.866;12.462;2024-02-14T10:41:36;8.00;;;2.10;;
43756;SDS011;73222;41.866;12.462;2024-02-14T10:44:02;5.35;;;1.98;;
43756;SDS011;73222;41.866;12.462;2024-02-14T10:46:29;2.88;;;2.00;;
43756;SDS011;73222;41.866;12.462;2024-02-14T10:48:58;3.03;;;1.60;;
43756;SDS011;73222;41.866;12.462;2024-02-14T10:51:29;1.77;;;1.40;;
43756;SDS011;73222;41.866;12.462;2024-02-14T10:53:57;4.63;;;1.70;;
43756;SDS011;73222;41.866;12.462;2024-02-14T10:56:24;3.25;;;1.58;;
43756;SDS011;73222;41.866;12.462;2024-02-14T10:58:55;4.55;;;1.70;;
43756;SDS011;73222;41.866;12.462;2024-02-14T11:01:25;3.17;;;1.60;;
43756;SDS011;73222;41.866;12.462;2024-02-14T11:03:53;3.13;;;1.60;;
43756;SDS011;73222;41.866;12.462;2024-02-14T11:06:20;2.85;;;1.88;;
43756;SDS011;73222;41.866;12.462;2024-02-14T11:08:55;2.88;;;1.63;;
43756;SDS011;73222;41.866;12.462;2024-02-14T11:11:21;2.85;;;1.90;;
43756;SDS011;73222;41.866;12.462;2024-02-14T11:13:51;3.50;;;1.95;;
43756;SDS011;73222;41.866;12.462;2024-02-14T11:16:17;3.85;;;1.90;;
43756;SDS011;73222;41.866;12.462;2024-02-14T11:18:43;3.25;;;2.05;;
43756;SDS011;73222;41.866;12.462;2024-02-14T11:21:15;2.53;;;1.80;;
43756;SDS011;73222;41.866;12.462;2024-02-14T11:23:52;2.63;;;1.95;;
43756;SDS011;73222;41.866;12.462;2024-02-14T11:26:18;3.10;;;2.22;;
43756;SDS011;73222;41.866;12.462;2024-02-14T11:28:44;2.97;;;2.10;;
43756;SDS011;73222;41.866;12.462;2024-02-14T11:31:16;2.85;;;2.03;;
43756;SDS011;73222;41.866;12.462;2024-02-14T11:33:42;2.92;;;2.10;;
43756;SDS011;73222;41.866;12.462;2024-02-14T11:36:10;4.32;;;2.00;;
43756;SDS011;73222;41.866;12.462;2024-02-14T11:38:36;2.97;;;1.90;;
43756;SDS011;73222;41.866;12.462;2024-02-14T11:41:03;2.03;;;1.70;;
43756;SDS011;73222;41.866;12.462;2024-02-14T11:43:29;2.40;;;1.70;;
43756;SDS011;73222;41.866;12.462;2024-02-14T11:45:56;2.65;;;1.80;;
43756;SDS011;73222;41.866;12.462;2024-02-14T11:48:22;3.10;;;1.90;;
43756;SDS011;73222;41.866;12.462;2024-02-14T11:50:49;2.60;;;1.80;;
43756;SDS011;73222;41.866;12.462;2024-02-14T11:53:17;4.03;;;1.70;;
43756;SDS011;73222;41.866;12.462;2024-02-14T11:55:44;3.53;;;1.70;;
43756;SDS011;73222;41.866;12.462;2024-02-14T11:58:12;2.50;;;1.70;;
43756;SDS011;73222;41.866;12.462;2024-02-14T12:00:42;2.45;;;1.50;;
43756;SDS011;73222;41.866;12.462;2024-02-14T12:03:10;2.63;;;1.60;;
43756;SDS011;73222;41.866;12.462;2024-02-14T12:05:37;2.70;;;1.73;;
43756;SDS011;73222;41.866;12.462;2024-02-14T12:08:06;3.05;;;1.70;;
43756;SDS011;73222;41.866;12.462;2024-02-14T12:10:32;2.50;;;1.60;;
43756;SDS011;73222;41.866;12.462;2024-02-14T12:13:06;2.45;;;1.80;;
43756;SDS011;73222;41.866;12.462;2024-02-14T12:15:46;2.67;;;1.85;;
43756;SDS011;73222;41.866;12.462;2024-02-14T12:18:13;3.28;;;1.80;;
43756;SDS011;73222;41.866;12.462;2024-02-14T12:20:41;2.30;;;1.35;;
43756;SDS011;73222;41.866;12.462;2024-02-14T12:23:07;3.75;;;1.85;;
43756;SDS011;73222;41.866;12.462;2024-02-14T12:25:39;2.30;;;1.63;;
43756;SDS011;73222;41.866;12.462;2024-02-14T12:28:04;2.60;;;1.58;;
43756;SDS011;73222;41.866;12.462;2024-02-14T12:30:44;2.60;;;1.70;;
43756;SDS011;73222;41.866;12.462;2024-02-14T12:33:15;2.22;;;1.65;;
43756;SDS011;73222;41.866;12.462;2024-02-14T12:35:44;2.05;;;1.50;;
43756;SDS011;73222;41.866;12.462;2024-02-14T12:38:11;2.22;;;1.80;;
43756;SDS011;73222;41.866;12.462;2024-02-14T12:40:41;2.70;;;1.85;;
43756;SDS011;73222;41.866;12.462;2024-02-14T12:43:09;3.15;;;1.70;;
43756;SDS011;73222;41.866;12.462;2024-02-14T12:45:37;2.70;;;1.90;;
43756;SDS011;73222;41.866;12.462;2024-02-14T12:48:03;2.70;;;1.90;;
43756;SDS011;73222;41.866;12.462;2024-02-14T12:50:30;3.03;;;1.90;;
43756;SDS011;73222;41.866;12.462;2024-02-14T12:52:55;4.22;;;1.90;;
43756;SDS011;73222;41.866;12.462;2024-02-14T12:55:21;3.50;;;1.98;;
43756;SDS011;73222;41.866;12.462;2024-02-14T13:00:14;3.43;;;1.90;;
43756;SDS011;73222;41.866;12.462;2024-02-14T13:02:39;2.90;;;1.90;;
43756;SDS011;73222;41.866;12.462;2024-02-14T13:05:05;3.05;;;2.03;;
43756;SDS011;73222;41.866;12.462;2024-02-14T13:07:32;3.17;;;2.10;;
43756;SDS011;73222;41.866;12.462;2024-02-14T13:09:57;4.15;;;2.00;;
43756;SDS011;73222;41.866;12.462;2024-02-14T13:12:23;4.00;;;2.03;;
43756;SDS011;73222;41.866;12.462;2024-02-14T13:14:49;2.78;;;1.90;;
43756;SDS011;73222;41.866;12.462;2024-02-14T13:17:14;3.67;;;1.85;;
43756;SDS011;73222;41.866;12.462;2024-02-14T13:19:40;4.07;;;2.03;;
43756;SDS011;73222;41.866;12.462;2024-02-14T13:22:07;2.55;;;1.83;;
43756;SDS011;73222;41.866;12.462;2024-02-14T13:24:33;3.00;;;1.80;;
43756;SDS011;73222;41.866;12.462;2024-02-14T13:26:58;5.75;;;2.00;;
43756;SDS011;73222;41.866;12.462;2024-02-14T13:29:24;3.53;;;2.00;;
43756;SDS011;73222;41.866;12.462;2024-02-14T13:31:49;3.38;;;2.00;;
43756;SDS011;73222;41.866;12.462;2024-02-14T13:34:16;3.10;;;2.10;;
43756;SDS011;73222;41.866;12.462;2024-02-14T13:36:43;4.45;;;2.03;;
43756;SDS011;73222;41.866;12.462;2024-02-14T13:39:09;3.47;;;2.00;;
43756;SDS011;73222;41.866;12.462;2024-02-14T13:41:35;2.67;;;1.88;;
43756;SDS011;73222;41.866;12.462;2024-02-14T13:46:28;2.28;;;1.83;;
43756;SDS011;73222;41.866;12.462;2024-02-14T13:48:53;2.90;;;2.03;;
43756;SDS011;73222;41.866;12.462;2024-02-14T13:51:19;2.88;;;2.08;;
43756;SDS011;73222;41.866;12.462;2024-02-14T13:53:45;5.38;;;2.03;;
43756;SDS011;73222;41.866;12.462;2024-02-14T13:56:10;2.92;;;1.80;;
43756;SDS011;73222;41.866;12.462;2024-02-14T13:58:36;3.30;;;2.10;;
43756;SDS011;73222;41.866;12.462;2024-02-14T14:01:03;2.53;;;1.90;;
43756;SDS011;73222;41.866;12.462;2024-02-14T14:03:29;5.75;;;2.10;;
43756;SDS011;73222;41.866;12.462;2024-02-14T14:05:55;3.28;;;2.00;;
43756;SDS011;73222;41.866;12.462;2024-02-14T14:08:22;3.83;;;2.10;;
43756;SDS011;73222;41.866;12.462;2024-02-14T14:10:48;3.42;;;2.10;;
43756;SDS011;73222;41.866;12.462;2024-02-14T14:13:13;3.70;;;2.10;;
43756;SDS011;73222;41.866;12.462;2024-02-14T14:15:39;2.22;;;1.70;;
43756;SDS011;73222;41.866;12.462;2024-02-14T14:18:05;4.47;;;2.10;;
43756;SDS011;73222;41.866;12.462;2024-02-14T14:20:33;3.22;;;2.13;;
43756;SDS011;73222;41.866;12.462;2024-02-14T14:22:58;3.45;;;2.30;;
43756;SDS011;73222;41.866;12.462;2024-02-14T14:25:25;2.90;;;2.00;;
43756;SDS011;73222;41.866;12.462;2024-02-14T14:27:52;2.63;;;1.83;;
43756;SDS011;73222;41.866;12.462;2024-02-14T14:30:18;3.17;;;2.13;;
43756;SDS011;73222;41.866;12.462;2024-02-14T14:32:44;4.05;;;2.00;;